Time;durP1;ratioP1;P1;durP2;ratioP2;P2;SDS_P1;SDS_P2;PMS_P1;PMS_P2;Temp;Humidity;BMP_temperature;BMP_pressure;BME280_temperature;BME280_humidity;BME280_pressure;Samples;Min_cycle;Max_cycle;Signal;HPM_P1;HPM_P2
2023/08/14 00:01:16;;;;;;;0.00;0.00;;;21.90;96.50;;;;;;4965137;28;20039;-82
2023/08/14 00:03:42;;;;;;;0.53;0.53;;;21.90;96.70;;;;;;4965490;28;20106;-81
2023/08/14 00:06:08;;;;;;;0.77;0.77;;;21.90;96.60;;;;;;4964457;28;20065;-82
2023/08/14 00:08:33;;;;;;;0.10;0.10;;;21.90;96.50;;;;;;4963747;28;20035;-82
2023/08/14 00:10:59;;;;;;;0.40;0.40;;;21.90;96.30;;;;;;4969706;28;20035;-81
2023/08/14 00:13:25;;;;;;;0.00;0.00;;;22.00;96.20;;;;;;4965278;28;20565;-82
2023/08/14 00:15:50;;;;;;;0.00;0.00;;;22.00;96.30;;;;;;4969783;28;20190;-82
2023/08/14 00:18:16;;;;;;;0.00;0.00;;;22.00;96.30;;;;;;4965287;28;20070;-81
2023/08/14 00:20:43;;;;;;;0.10;0.10;;;21.80;96.70;;;;;;4965479;28;20429;-81
2023/08/14 00:23:09;;;;;;;0.68;0.60;;;21.80;96.80;;;;;;4966083;28;20058;-81
2023/08/14 00:25:34;;;;;;;0.10;0.10;;;21.90;96.70;;;;;;4972109;28;20058;-83
2023/08/14 00:28:00;;;;;;;0.00;0.00;;;21.90;96.60;;;;;;4964529;28;20086;-83
2023/08/14 00:30:26;;;;;;;0.00;0.00;;;21.90;96.60;;;;;;4963487;28;20149;-84
2023/08/14 00:32:51;;;;;;;0.53;0.53;;;22.00;96.60;;;;;;4965246;28;20039;-85
2023/08/14 00:35:17;;;;;;;0.00;0.00;;;22.00;96.50;;;;;;4966117;28;20027;-84
2023/08/14 00:37:47;;;;;;;0.10;0.10;;;21.80;96.80;;;;;;4965236;28;20443;-84
2023/08/14 00:40:15;;;;;;;1.10;0.55;;;21.80;96.90;;;;;;4965191;28;20129;-84
2023/08/14 00:42:42;;;;;;;0.47;0.47;;;21.70;97.40;;;;;;4966099;28;20704;-84
2023/08/14 00:45:09;;;;;;;0.75;0.45;;;21.80;97.50;;;;;;4967399;28;20026;-87
2023/08/14 00:47:39;;;;;;;0.00;0.00;;;21.60;97.90;;;;;;4966300;28;20037;-85
2023/08/14 00:50:07;;;;;;;0.50;0.50;;;21.50;98.00;;;;;;4966078;28;20042;-86
2023/08/14 00:52:35;;;;;;;0.90;0.20;;;21.50;97.80;;;;;;4968284;28;20062;-86
2023/08/14 00:55:02;;;;;;;0.10;0.10;;;21.50;97.70;;;;;;4967861;28;20209;-85
2023/08/14 00:57:31;;;;;;;0.20;0.10;;;21.50;97.00;;;;;;4967169;28;20026;-84
2023/08/14 00:59:57;;;;;;;0.13;0.13;;;21.40;96.60;;;;;;4966260;28;20165;-83
2023/08/14 01:02:24;;;;;;;0.20;0.20;;;21.40;96.20;;;;;;4968521;28;20502;-84
2023/08/14 01:04:50;;;;;;;0.93;0.73;;;21.40;95.90;;;;;;4968572;28;20094;-84
2023/08/14 01:07:16;;;;;;;0.23;0.23;;;21.50;95.50;;;;;;4966923;28;20600;-85
2023/08/14 01:09:42;;;;;;;0.30;0.30;;;21.50;95.20;;;;;;4970845;28;20085;-86
2023/08/14 01:12:22;;;;;;;0.00;0.00;;;21.60;95.00;;;;;;4970530;28;20118;-85
2023/08/14 01:14:55;;;;;;;0.10;0.10;;;21.70;94.90;;;;;;4979083;28;20278;-86
2023/08/14 01:17:26;;;;;;;0.20;0.20;;;21.60;95.10;;;;;;4961547;28;20048;-86
2023/08/14 01:19:55;;;;;;;0.00;0.00;;;21.50;95.10;;;;;;4966517;28;20101;-86
2023/08/14 01:23:05;;;;;;;0.03;0.03;;;21.40;95.40;;;;;;4965543;28;20046;-85
2023/08/14 01:25:37;;;;;;;0.10;0.10;;;21.10;96.30;;;;;;4959884;28;20051;-85
2023/08/14 01:28:04;;;;;;;0.20;0.20;;;21.20;96.30;;;;;;4965296;28;20057;-85
2023/08/14 01:30:30;;;;;;;0.30;0.30;;;21.30;96.10;;;;;;4965143;28;20038;-86
2023/08/14 01:32:56;;;;;;;0.25;0.25;;;21.40;95.80;;;;;;4964037;28;20828;-84
2023/08/14 01:35:24;;;;;;;1.13;0.20;;;21.40;95.20;;;;;;4966276;28;20043;-86
2023/08/14 01:38:04;;;;;;;0.30;0.30;;;21.40;94.90;;;;;;4968726;28;20250;-83
2023/08/14 01:40:59;;;;;;;1.17;0.75;;;21.40;94.60;;;;;;4966936;28;20029;-86
2023/08/14 01:43:37;;;;;;;0.00;0.00;;;21.40;94.40;;;;;;4964723;28;20068;-84
2023/08/14 01:46:04;;;;;;;0.15;0.15;;;21.40;95.20;;;;;;4967341;28;20037;-84
2023/08/14 01:48:31;;;;;;;1.45;1.23;;;21.30;95.80;;;;;;4970616;28;20031;-85
2023/08/14 01:50:57;;;;;;;0.40;0.40;;;21.10;96.20;;;;;;4969104;28;20030;-84
2023/08/14 01:53:23;;;;;;;0.00;0.00;;;21.20;95.90;;;;;;4963202;28;20578;-85
2023/08/14 01:55:48;;;;;;;0.10;0.10;;;21.40;95.80;;;;;;4969493;28;20110;-85
2023/08/14 01:58:14;;;;;;;0.20;0.20;;;21.40;95.60;;;;;;4967263;28;20077;-84
2023/08/14 02:00:40;;;;;;;0.03;0.03;;;21.30;96.00;;;;;;4963599;28;20149;-84
2023/08/14 02:03:06;;;;;;;0.90;0.87;;;21.50;95.50;;;;;;4964138;28;20502;-84
2023/08/14 02:05:32;;;;;;;0.10;0.10;;;21.60;94.90;;;;;;4964507;28;20042;-85
2023/08/14 02:07:57;;;;;;;0.03;0.03;;;21.70;94.60;;;;;;4962864;28;20034;-83
2023/08/14 02:10:23;;;;;;;0.20;0.20;;;21.70;94.40;;;;;;4964406;28;20023;-82
2023/08/14 02:12:49;;;;;;;0.10;0.10;;;21.60;94.70;;;;;;4964139;28;20035;-83
2023/08/14 02:15:15;;;;;;;0.00;0.00;;;21.40;95.10;;;;;;4963698;28;20481;-83
2023/08/14 02:17:40;;;;;;;0.10;0.10;;;21.30;95.80;;;;;;4964000;28;20066;-83
2023/08/14 02:20:07;;;;;;;0.10;0.10;;;21.20;96.10;;;;;;4969524;28;20052;-84
2023/08/14 02:22:33;;;;;;;0.10;0.10;;;21.10;96.90;;;;;;4964816;28;20050;-84
2023/08/14 02:24:59;;;;;;;0.00;0.00;;;21.10;97.40;;;;;;4965599;28;20061;-83
2023/08/14 02:27:25;;;;;;;0.10;0.10;;;21.10;98.00;;;;;;4960807;28;20043;-84
2023/08/14 02:29:50;;;;;;;0.10;0.10;;;21.20;97.40;;;;;;4965886;28;20031;-84
2023/08/14 02:32:16;;;;;;;0.00;0.00;;;21.40;96.30;;;;;;4965613;28;20410;-84
2023/08/14 02:34:46;;;;;;;0.37;0.37;;;21.50;95.90;;;;;;4967397;28;20525;-84
2023/08/14 02:37:14;;;;;;;0.30;0.30;;;21.60;95.30;;;;;;4967147;28;20031;-83
2023/08/14 02:39:41;;;;;;;0.15;0.10;;;21.60;95.10;;;;;;4966805;28;20051;-83
2023/08/14 02:42:07;;;;;;;0.30;0.30;;;21.70;94.80;;;;;;4966558;28;20031;-83
2023/08/14 02:44:33;;;;;;;2.27;0.50;;;21.70;94.60;;;;;;4966080;28;20054;-83
2023/08/14 02:46:59;;;;;;;;;;;21.70;94.70;;;;;;4967281;28;20262;-83
2023/08/14 02:49:25;;;;;;;0.13;0.13;;;21.50;96.10;;;;;;4966859;28;19914;-83
2023/08/14 02:51:52;;;;;;;0.23;0.23;;;21.40;97.00;;;;;;4965427;28;20415;-84
2023/08/14 02:54:17;;;;;;;;;;;21.30;97.40;;;;;;4967292;28;20035;-81
2023/08/14 02:56:43;;;;;;;0.10;0.10;;;21.40;96.30;;;;;;4966661;28;19910;-82
2023/08/14 02:59:08;;;;;;;1.10;0.40;;;21.30;96.50;;;;;;4963418;28;20038;-82
2023/08/14 03:01:34;;;;;;;0.17;0.17;;;20.20;99.90;;;;;;4967050;28;20023;-84
2023/08/14 03:04:00;;;;;;;0.00;0.00;;;19.50;99.90;;;;;;4974760;28;20495;-84
2023/08/14 03:06:29;;;;;;;0.00;0.00;;;18.90;99.90;;;;;;4965825;28;20038;-82
2023/08/14 03:08:55;;;;;;;0.00;0.00;;;19.60;99.90;;;;;;4966684;28;20123;-83
2023/08/14 03:11:47;;;;;;;3.80;0.57;;;19.20;99.90;;;;;;5046715;23;20074;31
2023/08/14 03:14:13;;;;;;;0.10;0.10;;;19.40;99.90;;;;;;4825699;29;20046;-84
2023/08/14 03:16:39;;;;;;;0.00;0.00;;;19.50;99.90;;;;;;4837136;29;20033;-84
2023/08/14 03:19:04;;;;;;;0.10;0.10;;;19.20;99.90;;;;;;4838114;29;20029;-83
2023/08/14 03:21:30;;;;;;;0.07;0.07;;;19.00;99.90;;;;;;4837717;29;20518;-83
2023/08/14 03:23:56;;;;;;;0.10;0.10;;;18.80;99.90;;;;;;4842142;29;20033;-84
2023/08/14 03:26:21;;;;;;;0.00;0.00;;;19.00;99.90;;;;;;4844062;29;20025;-84
2023/08/14 03:28:47;;;;;;;0.33;0.33;;;19.00;99.90;;;;;;4834687;29;20038;-85
2023/08/14 03:31:13;;;;;;;0.03;0.03;;;18.70;99.90;;;;;;4839002;29;20030;-85
2023/08/14 03:33:39;;;;;;;0.00;0.00;;;18.80;99.90;;;;;;4840819;29;20849;-86
2023/08/14 03:36:04;;;;;;;0.00;0.00;;;18.60;99.90;;;;;;4834700;29;20034;-85
2023/08/14 03:38:31;;;;;;;0.70;0.70;;;18.70;99.90;;;;;;4836808;29;20071;-87
2023/08/14 03:40:57;;;;;;;0.05;0.05;;;18.60;99.90;;;;;;4833445;29;20107;-85
2023/08/14 03:43:23;;;;;;;0.82;0.30;;;18.80;99.90;;;;;;4835844;29;20454;-87
2023/08/14 03:45:49;;;;;;;0.07;0.07;;;18.90;99.90;;;;;;4838606;29;20139;-86
2023/08/14 03:48:15;;;;;;;0.17;0.17;;;18.90;99.90;;;;;;4842765;29;20066;-86
2023/08/14 03:50:45;;;;;;;0.93;0.83;;;19.00;99.90;;;;;;4835409;29;20125;-86
2023/08/14 05:07:12;;;;;;;0.10;0.10;;;18.80;99.90;;;;;;5083217;22;1583170;-86
2023/08/14 05:09:38;;;;;;;0.30;0.30;;;18.80;99.90;;;;;;5086587;28;20028;-82
2023/08/14 05:12:04;;;;;;;0.17;0.17;;;18.80;99.90;;;;;;5094440;28;20023;-81
2023/08/14 05:14:30;;;;;;;0.03;0.03;;;18.90;99.90;;;;;;5098074;28;20029;-81
2023/08/14 05:16:56;;;;;;;0.00;0.00;;;18.50;99.90;;;;;;5094171;28;20081;-79
2023/08/14 05:19:21;;;;;;;0.00;0.00;;;18.40;99.90;;;;;;5100808;28;20039;-80
2023/08/14 05:21:47;;;;;;;0.37;0.37;;;18.40;99.90;;;;;;5102286;28;20028;-78
2023/08/14 05:24:14;;;;;;;0.00;0.00;;;18.30;99.90;;;;;;5098853;28;20028;-82
2023/08/14 05:26:40;;;;;;;1.10;0.68;;;18.20;99.90;;;;;;5092649;28;20040;-76
2023/08/14 05:29:06;;;;;;;0.10;0.10;;;18.20;99.90;;;;;;5099993;28;20040;-79
2023/08/14 05:31:31;;;;;;;0.00;0.00;;;18.20;99.90;;;;;;5099783;28;20035;-77
2023/08/14 05:33:57;;;;;;;0.00;0.00;;;18.20;99.90;;;;;;5101128;28;20031;-75
2023/08/14 05:36:23;;;;;;;0.00;0.00;;;18.30;99.90;;;;;;5100081;28;20553;-75
2023/08/14 05:38:49;;;;;;;1.13;0.33;;;18.30;99.90;;;;;;5099884;28;20024;-77
2023/08/14 05:41:15;;;;;;;0.57;0.28;;;18.30;99.90;;;;;;5098485;28;20809;-77
2023/08/14 05:43:41;;;;;;;0.10;0.10;;;18.30;99.90;;;;;;5100940;28;20032;-76
2023/08/14 05:46:06;;;;;;;0.13;0.13;;;18.30;99.90;;;;;;5099637;28;20289;-75
2023/08/14 05:48:32;;;;;;;0.10;0.10;;;18.40;99.90;;;;;;5100010;28;20027;-76
2023/08/14 05:50:58;;;;;;;0.17;0.17;;;18.40;99.90;;;;;;5094084;28;20024;-78
2023/08/14 05:53:23;;;;;;;0.00;0.00;;;18.50;99.90;;;;;;5098901;28;20039;-75
2023/08/14 05:55:49;;;;;;;0.10;0.10;;;18.50;99.90;;;;;;5100450;28;20468;-74
2023/08/14 05:58:15;;;;;;;0.00;0.00;;;18.50;99.90;;;;;;5100443;28;20035;-79
2023/08/14 06:00:41;;;;;;;1.63;0.43;;;18.50;99.90;;;;;;5099084;28;20024;-78
2023/08/14 06:03:08;;;;;;;0.10;0.10;;;18.60;99.90;;;;;;5100324;28;20028;-75
2023/08/14 06:05:35;;;;;;;0.20;0.20;;;18.70;99.90;;;;;;5099113;28;20139;-77
2023/08/14 06:08:00;;;;;;;0.17;0.17;;;18.80;99.90;;;;;;5099733;28;20044;-78
2023/08/14 06:10:26;;;;;;;0.10;0.10;;;19.00;99.90;;;;;;5100072;28;20028;-79
2023/08/14 06:12:52;;;;;;;0.40;0.37;;;19.10;99.90;;;;;;5099805;28;20566;-76
2023/08/14 06:15:19;;;;;;;0.10;0.10;;;19.40;99.90;;;;;;5094577;28;20016;-76
2023/08/14 06:17:47;;;;;;;0.10;0.10;;;19.50;99.90;;;;;;5089662;28;20506;-75
2023/08/14 06:20:13;;;;;;;0.38;0.38;;;19.70;99.90;;;;;;5085462;28;20478;-78
2023/08/14 06:22:40;;;;;;;0.00;0.00;;;19.80;99.90;;;;;;5083757;28;20028;-75
2023/08/14 06:25:07;;;;;;;0.00;0.00;;;19.90;99.90;;;;;;5084381;28;20104;-76
2023/08/14 06:27:33;;;;;;;;;;;20.10;99.90;;;;;;5086335;28;20114;-75
2023/08/14 06:30:00;;;;;;;0.00;0.00;;;20.30;99.90;;;;;;5082268;28;19923;-76
2023/08/14 06:32:26;;;;;;;0.10;0.10;;;20.50;99.90;;;;;;5084377;28;20098;-78
2023/08/14 06:34:51;;;;;;;0.00;0.00;;;20.70;99.90;;;;;;5082527;28;20417;-75
2023/08/14 06:37:17;;;;;;;0.00;0.00;;;20.70;99.90;;;;;;5083767;28;20928;-81
2023/08/14 06:39:43;;;;;;;0.20;0.20;;;20.70;99.90;;;;;;5084823;28;20028;-80
2023/08/14 06:42:08;;;;;;;0.00;0.00;;;21.10;99.90;;;;;;5077163;28;20034;-81
2023/08/14 06:44:34;;;;;;;0.10;0.10;;;22.10;99.90;;;;;;5082736;28;20025;-81
2023/08/14 06:47:00;;;;;;;0.00;0.00;;;22.50;99.90;;;;;;5084632;28;20059;-81
2023/08/14 06:49:27;;;;;;;0.00;0.00;;;23.00;99.90;;;;;;5085385;28;20028;-80
2023/08/14 06:51:53;;;;;;;;;;;23.30;99.90;;;;;;5092814;28;20059;-81
2023/08/14 06:54:18;;;;;;;0.25;0.25;;;23.70;99.90;;;;;;5085293;28;19981;-81
2023/08/14 06:56:44;;;;;;;0.00;0.00;;;24.30;99.90;;;;;;5083916;28;20047;-81
2023/08/14 06:59:10;;;;;;;0.00;0.00;;;24.10;99.90;;;;;;5085192;28;20043;-81
2023/08/14 07:01:35;;;;;;;0.00;0.00;;;23.70;99.90;;;;;;5082316;28;20026;-82
2023/08/14 07:04:02;;;;;;;0.10;0.00;;;23.20;99.90;;;;;;5081420;28;20031;-81
2023/08/14 07:06:28;;;;;;;0.00;0.00;;;22.30;99.90;;;;;;5084866;28;20056;-81
2023/08/14 07:08:53;;;;;;;0.00;0.00;;;23.30;99.90;;;;;;5085373;28;20032;-81
2023/08/14 07:11:19;;;;;;;0.00;0.00;;;23.60;99.90;;;;;;5084039;28;20644;-81
2023/08/14 07:13:45;;;;;;;0.00;0.00;;;23.20;99.90;;;;;;5078612;28;20521;-80
2023/08/14 07:16:10;;;;;;;0.00;0.00;;;22.40;99.90;;;;;;5085118;28;20650;-80
2023/08/14 07:18:36;;;;;;;0.07;0.07;;;22.20;99.90;;;;;;5085764;28;20492;-81
2023/08/14 07:21:02;;;;;;;0.00;0.00;;;23.50;99.90;;;;;;5085080;28;20791;-81
2023/08/14 07:23:27;;;;;;;0.00;0.00;;;22.80;99.90;;;;;;5085285;28;20442;-80
2023/08/14 07:25:57;;;;;;;0.00;0.00;;;24.30;99.90;;;;;;5085543;28;20165;-81
2023/08/14 07:28:23;;;;;;;0.00;0.00;;;27.20;99.90;;;;;;5083121;28;20035;-78
2023/08/14 07:30:49;;;;;;;0.00;0.00;;;27.60;99.90;;;;;;5084974;28;20107;-79
2023/08/14 07:33:15;;;;;;;0.57;0.25;;;28.10;99.90;;;;;;5085758;28;20032;-78
2023/08/14 07:35:41;;;;;;;0.00;0.00;;;28.70;99.90;;;;;;5083362;28;20035;-77
2023/08/14 07:38:07;;;;;;;;;;;29.10;99.90;;;;;;5086227;28;20094;-77
2023/08/14 07:40:33;;;;;;;0.00;0.00;;;29.50;99.90;;;;;;5084432;28;19919;-78
2023/08/14 07:42:58;;;;;;;;;;;29.60;99.90;;;;;;5084182;28;20494;-79
2023/08/14 07:45:24;;;;;;;0.00;0.00;;;29.90;99.90;;;;;;5084656;28;20373;-82
2023/08/14 07:47:49;;;;;;;;;;;30.30;99.90;;;;;;5085136;28;20028;-82
2023/08/14 07:50:15;;;;;;;0.00;0.00;;;30.60;99.90;;;;;;5085424;28;19916;-82
2023/08/14 07:52:41;;;;;;;0.20;0.20;;;30.80;99.90;;;;;;5081509;28;20027;-82
2023/08/14 07:55:07;;;;;;;0.00;0.00;;;31.30;99.90;;;;;;5083644;28;20067;-80
2023/08/14 07:57:33;;;;;;;0.13;0.10;;;31.60;99.90;;;;;;5085343;28;20032;-80
2023/08/14 07:59:58;;;;;;;0.00;0.00;;;32.00;99.90;;;;;;5082216;28;20024;-81
2023/08/14 08:02:24;;;;;;;0.00;0.00;;;32.30;99.90;;;;;;5084156;28;20060;-81
2023/08/14 08:04:50;;;;;;;0.05;0.05;;;32.50;99.90;;;;;;5084862;28;20066;-80
2023/08/14 08:07:16;;;;;;;0.00;0.00;;;32.80;99.90;;;;;;5083622;28;20048;-82
2023/08/14 08:09:42;;;;;;;0.10;0.10;;;33.10;99.90;;;;;;5083076;28;20393;-82
2023/08/14 08:12:08;;;;;;;0.10;0.10;;;33.10;99.90;;;;;;5084007;28;20038;-83
2023/08/14 08:14:35;;;;;;;0.10;0.10;;;34.10;99.90;;;;;;5082641;28;20142;-80
2023/08/14 08:17:01;;;;;;;0.00;0.00;;;34.50;99.30;;;;;;5083436;28;20518;-80
2023/08/14 08:19:27;;;;;;;0.00;0.00;;;34.60;90.00;;;;;;5083761;28;20073;-83
2023/08/14 08:21:53;;;;;;;0.30;0.30;;;34.80;93.10;;;;;;5083786;28;20020;-80
2023/08/14 08:24:19;;;;;;;0.00;0.00;;;35.50;91.70;;;;;;5084006;28;20028;-82
2023/08/14 08:26:46;;;;;;;0.00;0.00;;;35.70;87.80;;;;;;5083856;28;20062;-81
2023/08/14 08:29:11;;;;;;;0.00;0.00;;;35.40;88.60;;;;;;5081549;28;20123;-82
2023/08/14 08:31:37;;;;;;;0.00;0.00;;;35.70;79.60;;;;;;5084009;28;20034;-81
2023/08/14 08:34:03;;;;;;;0.00;0.00;;;36.30;84.30;;;;;;5083726;28;20028;-81
2023/08/14 08:36:29;;;;;;;0.00;0.00;;;36.50;77.10;;;;;;5083607;28;20073;-82
2023/08/14 08:38:54;;;;;;;0.43;0.35;;;37.40;70.60;;;;;;5084113;28;20471;-81
2023/08/14 08:41:35;;;;;;;0.00;0.00;;;37.50;71.50;;;;;;5083490;28;20508;-80
2023/08/14 08:44:10;;;;;;;0.10;0.10;;;37.30;71.10;;;;;;5080689;28;20028;-80
2023/08/14 08:46:42;;;;;;;0.00;0.00;;;37.50;62.20;;;;;;5096916;28;20055;-80
2023/08/14 08:49:09;;;;;;;0.00;0.00;;;37.80;67.20;;;;;;5082602;28;20034;-81
2023/08/14 08:51:35;;;;;;;0.00;0.00;;;37.90;62.90;;;;;;5083090;28;20099;-81
2023/08/14 08:54:02;;;;;;;0.20;0.20;;;38.40;66.90;;;;;;5083363;28;20031;-80
2023/08/14 08:56:27;;;;;;;0.00;0.00;;;38.40;60.00;;;;;;5083896;28;20028;-81
2023/08/14 08:58:53;;;;;;;0.25;0.20;;;38.50;62.30;;;;;;5083073;28;20035;-82
2023/08/14 09:01:20;;;;;;;0.00;0.00;;;38.70;59.10;;;;;;5083579;28;20038;-82
2023/08/14 09:03:47;;;;;;;0.20;0.20;;;38.70;59.40;;;;;;5083946;28;20024;-80
2023/08/14 09:06:13;;;;;;;0.00;0.00;;;38.60;58.80;;;;;;5083524;28;20032;-81
2023/08/14 09:08:39;;;;;;;0.00;0.00;;;37.80;59.40;;;;;;5081979;28;20532;-81
2023/08/14 09:11:04;;;;;;;0.00;0.00;;;37.20;57.60;;;;;;5081665;28;20024;-80
2023/08/14 09:13:30;;;;;;;0.85;0.43;;;37.60;58.30;;;;;;5083544;28;20042;-81
2023/08/14 09:15:56;;;;;;;0.00;0.00;;;37.90;57.20;;;;;;5081758;28;20044;-77
2023/08/14 09:18:22;;;;;;;0.00;0.00;;;37.40;57.20;;;;;;5083296;28;20024;-78
2023/08/14 09:20:47;;;;;;;0.20;0.13;;;36.00;57.30;;;;;;5082458;28;20039;-78
2023/08/14 09:23:13;;;;;;;0.05;0.03;;;37.20;57.40;;;;;;5075735;28;20024;-81
2023/08/14 09:25:46;;;;;;;0.05;0.05;;;37.70;55.80;;;;;;5083173;28;20795;-78
2023/08/14 09:28:13;;;;;;;0.03;0.03;;;38.10;56.50;;;;;;5081731;28;20021;-78
2023/08/14 09:30:40;;;;;;;0.00;0.00;;;38.30;52.90;;;;;;5083263;28;20023;-80
2023/08/14 09:33:09;;;;;;;0.03;0.03;;;38.40;56.90;;;;;;5084174;28;20024;-76
2023/08/14 09:35:36;;;;;;;0.00;0.00;;;38.00;53.60;;;;;;5081021;28;20040;-75
2023/08/14 09:38:03;;;;;;;0.50;0.10;;;39.20;54.30;;;;;;5082843;28;20494;-78
2023/08/14 09:40:30;;;;;;;0.20;0.20;;;39.80;52.80;;;;;;5082421;28;20028;-81
2023/08/14 09:42:56;;;;;;;0.10;0.10;;;39.50;52.60;;;;;;5083658;28;20031;-77
2023/08/14 09:45:27;;;;;;;0.00;0.00;;;39.80;51.90;;;;;;5082672;28;20407;-77
2023/08/14 09:47:58;;;;;;;0.05;0.05;;;39.20;53.60;;;;;;5070834;28;20428;-80
2023/08/14 09:50:27;;;;;;;0.13;0.13;;;39.50;51.70;;;;;;5080924;28;20032;-79
2023/08/14 09:52:59;;;;;;;0.00;0.00;;;39.50;53.40;;;;;;5084843;28;20024;-79
2023/08/14 09:55:27;;;;;;;0.00;0.00;;;39.80;52.40;;;;;;5085629;28;20040;-77
2023/08/14 09:57:53;;;;;;;0.10;0.10;;;39.80;50.80;;;;;;5085235;28;20031;-77
2023/08/14 10:00:19;;;;;;;0.00;0.00;;;39.40;49.60;;;;;;5084901;28;20148;-77
2023/08/14 10:02:47;;;;;;;0.20;0.20;;;37.70;50.80;;;;;;5085625;28;20024;-78
2023/08/14 10:05:16;;;;;;;0.00;0.00;;;37.80;52.20;;;;;;5085574;28;20034;-77
2023/08/14 10:07:43;;;;;;;0.00;0.00;;;37.90;53.60;;;;;;5084341;28;20044;-76
2023/08/14 10:10:11;;;;;;;0.00;0.00;;;38.40;51.40;;;;;;5086683;28;20055;-80
2023/08/14 10:12:58;;;;;;;0.85;0.47;;;39.00;53.20;;;;;;5082363;28;20051;-77
2023/08/14 10:15:30;;;;;;;0.00;0.00;;;39.70;49.60;;;;;;5085131;28;20028;-79
2023/08/14 10:18:01;;;;;;;1.35;0.52;;;39.10;50.70;;;;;;5086089;28;20078;-77
2023/08/14 10:20:33;;;;;;;1.33;0.43;;;36.60;53.60;;;;;;5086282;28;20035;-77
2023/08/14 10:23:00;;;;;;;0.08;0.08;;;37.10;52.60;;;;;;5079354;28;20034;-79
2023/08/14 10:25:26;;;;;;;1.25;0.70;;;37.20;53.00;;;;;;5084729;28;20032;-76
2023/08/14 10:27:52;;;;;;;0.30;0.30;;;37.70;51.40;;;;;;5083787;28;20028;-76
2023/08/14 10:30:19;;;;;;;;;;;36.30;52.70;;;;;;5077992;28;20028;-76
2023/08/14 10:32:47;;;;;;;0.05;0.05;;;34.30;55.60;;;;;;5068737;28;19913;-76
2023/08/14 10:35:12;;;;;;;0.00;0.00;;;33.70;58.00;;;;;;5081494;28;20063;-76
2023/08/14 10:37:41;;;;;;;0.32;0.32;;;33.00;59.30;;;;;;5078421;28;20550;-77
2023/08/14 10:40:14;;;;;;;0.73;0.70;;;33.00;64.60;;;;;;5081435;28;20034;-77
2023/08/14 10:43:00;;;;;;;0.10;0.10;;;32.20;62.60;;;;;;5085134;28;20023;-76
2023/08/14 10:45:27;;;;;;;0.40;0.40;;;32.60;63.00;;;;;;5081829;28;20034;-76
2023/08/14 10:47:59;;;;;;;0.20;0.20;;;32.70;64.10;;;;;;5073192;28;20094;-77
2023/08/14 10:50:26;;;;;;;0.20;0.20;;;32.20;64.40;;;;;;5081360;28;20105;-76
2023/08/14 10:52:54;;;;;;;0.00;0.00;;;32.50;64.70;;;;;;5084878;28;20429;-76
2023/08/14 10:55:37;;;;;;;0.45;0.28;;;32.30;68.00;;;;;;5084255;28;20024;-78
2023/08/14 10:58:28;;;;;;;0.17;0.17;;;32.10;68.20;;;;;;5083976;28;20039;-76
2023/08/14 11:00:54;;;;;;;0.10;0.10;;;32.30;68.60;;;;;;5080368;28;20028;-77
2023/08/14 11:03:19;;;;;;;;;;;32.10;66.60;;;;;;5083937;28;20032;-77
2023/08/14 11:05:45;;;;;;;0.10;0.10;;;31.90;65.10;;;;;;5082051;28;20414;-76
2023/08/14 11:08:12;;;;;;;0.00;0.00;;;32.40;67.40;;;;;;5083134;28;20052;-76
2023/08/14 11:10:39;;;;;;;0.10;0.10;;;31.40;66.50;;;;;;5082461;28;20105;-77
2023/08/14 11:13:09;;;;;;;0.28;0.28;;;31.30;68.40;;;;;;5083692;28;20032;-77
2023/08/14 11:15:39;;;;;;;1.65;1.20;;;31.70;67.50;;;;;;5078680;28;20040;-77
2023/08/14 11:18:09;;;;;;;0.10;0.10;;;31.90;65.30;;;;;;5079071;28;20039;-76
2023/08/14 11:20:37;;;;;;;1.33;0.63;;;32.70;63.70;;;;;;5082523;28;20641;-77
2023/08/14 11:23:03;;;;;;;0.00;0.00;;;32.60;62.20;;;;;;5077502;28;20116;-76
2023/08/14 11:25:30;;;;;;;0.38;0.38;;;32.90;62.30;;;;;;5097867;28;20470;-76
2023/08/14 11:27:56;;;;;;;0.00;0.00;;;32.30;64.20;;;;;;5083758;28;20067;-77
2023/08/14 11:30:24;;;;;;;0.10;0.10;;;31.80;63.40;;;;;;5083661;28;20103;-77
2023/08/14 11:32:51;;;;;;;0.00;0.00;;;32.00;64.30;;;;;;5083049;28;20040;-77
2023/08/14 11:35:17;;;;;;;0.00;0.00;;;32.10;66.10;;;;;;5073155;28;20024;-76
2023/08/14 11:37:44;;;;;;;0.15;0.15;;;32.80;72.40;;;;;;5082964;28;20084;-76
2023/08/14 11:40:11;;;;;;;0.32;0.32;;;33.10;62.00;;;;;;5084180;28;20020;-77
2023/08/14 11:42:38;;;;;;;0.30;0.30;;;33.20;62.20;;;;;;5085181;28;20390;-77
2023/08/14 11:45:06;;;;;;;0.32;0.30;;;31.80;62.70;;;;;;5083935;28;20031;-77
2023/08/14 11:47:36;;;;;;;0.00;0.00;;;31.30;65.10;;;;;;5084133;28;20550;-77
2023/08/14 11:50:08;;;;;;;0.00;0.00;;;32.00;65.20;;;;;;5085941;28;20111;-76
2023/08/14 11:52:36;;;;;;;0.00;0.00;;;32.30;64.00;;;;;;5085172;28;20028;-77
2023/08/14 11:55:02;;;;;;;0.00;0.00;;;31.80;64.10;;;;;;5085575;28;20028;-76
2023/08/14 11:57:31;;;;;;;0.15;0.10;;;32.10;66.00;;;;;;5084954;28;20479;-76
2023/08/14 11:59:58;;;;;;;0.15;0.10;;;31.90;65.40;;;;;;5085062;28;20024;-76
2023/08/14 12:02:25;;;;;;;0.20;0.20;;;31.50;66.40;;;;;;5085040;28;20402;-77
2023/08/14 12:05:02;;;;;;;0.08;0.08;;;31.10;64.80;;;;;;5085555;28;20016;-76
2023/08/14 12:07:29;;;;;;;0.22;0.20;;;30.40;68.10;;;;;;5084576;28;20055;-76
2023/08/14 12:09:55;;;;;;;0.25;0.25;;;30.90;71.00;;;;;;5084978;28;20055;-76
2023/08/14 12:12:21;;;;;;;4.72;0.85;;;31.40;70.50;;;;;;5084934;28;20118;-76
2023/08/14 12:14:49;;;;;;;0.17;0.17;;;31.20;65.50;;;;;;5095150;28;20039;-76
2023/08/14 12:17:18;;;;;;;1.10;0.63;;;31.70;65.00;;;;;;5078403;28;20024;-77
2023/08/14 12:20:03;;;;;;;0.25;0.25;;;31.80;66.30;;;;;;5084529;28;20020;-77
2023/08/14 12:22:31;;;;;;;0.08;0.08;;;31.20;67.40;;;;;;5084705;28;20038;-77
2023/08/14 12:24:57;;;;;;;0.47;0.47;;;30.70;67.00;;;;;;5085224;28;20024;-76
2023/08/14 12:27:25;;;;;;;0.00;0.00;;;30.50;67.80;;;;;;5084952;28;20031;-76
2023/08/14 12:29:53;;;;;;;0.43;0.43;;;30.30;68.80;;;;;;5085378;28;20044;-76
2023/08/14 12:32:20;;;;;;;0.20;0.20;;;30.60;67.60;;;;;;5084392;28;20038;-77
2023/08/14 12:34:46;;;;;;;0.10;0.10;;;31.00;67.90;;;;;;5083906;28;20020;-76
2023/08/14 12:37:14;;;;;;;0.00;0.00;;;31.50;67.80;;;;;;5084839;28;20039;-76
2023/08/14 12:39:42;;;;;;;0.65;0.50;;;31.30;66.00;;;;;;5085090;28;20053;-77
2023/08/14 12:42:08;;;;;;;0.10;0.10;;;30.80;67.80;;;;;;5084538;28;20028;-76
2023/08/14 12:44:34;;;;;;;0.13;0.13;;;30.40;70.60;;;;;;5083633;28;20454;-76
2023/08/14 12:46:59;;;;;;;0.00;0.00;;;30.20;68.60;;;;;;5084502;28;20143;-77
2023/08/14 12:49:25;;;;;;;0.10;0.10;;;30.30;68.00;;;;;;5084548;28;20128;-76
2023/08/14 12:51:53;;;;;;;0.00;0.00;;;30.70;68.90;;;;;;5084167;28;20054;-77
2023/08/14 12:54:20;;;;;;;0.38;0.38;;;30.60;68.90;;;;;;5077773;28;20020;-77
2023/08/14 12:56:46;;;;;;;0.10;0.10;;;29.90;70.10;;;;;;5085008;28;20070;-76
2023/08/14 12:59:12;;;;;;;0.00;0.00;;;29.70;70.00;;;;;;5083020;28;20066;-76
2023/08/14 13:01:38;;;;;;;0.25;0.10;;;30.10;67.70;;;;;;5077042;28;20050;-76
2023/08/14 13:04:04;;;;;;;;;;;30.40;67.90;;;;;;5084799;28;20035;-76
2023/08/14 13:06:30;;;;;;;0.38;0.38;;;30.20;66.90;;;;;;5083903;28;19920;-77
2023/08/14 13:08:57;;;;;;;0.32;0.32;;;30.20;69.80;;;;;;5085038;28;20027;-76
2023/08/14 13:11:22;;;;;;;;;;;30.20;68.40;;;;;;5084933;28;20043;-76
2023/08/14 13:13:52;;;;;;;0.00;0.00;;;30.20;70.70;;;;;;5084999;28;19948;-76
2023/08/14 13:16:18;;;;;;;0.68;0.50;;;30.40;68.10;;;;;;5082506;28;20080;-76
2023/08/14 13:18:44;;;;;;;;;;;30.40;68.10;;;;;;5085025;28;20482;-77
2023/08/14 13:21:09;;;;;;;0.80;0.25;;;30.20;66.80;;;;;;5083439;28;19930;-76
2023/08/14 13:23:35;;;;;;;0.22;0.22;;;30.30;69.60;;;;;;5082283;28;20528;-76
2023/08/14 13:26:01;;;;;;;;;;;30.00;68.90;;;;;;5083939;28;20086;-77
2023/08/14 13:28:27;;;;;;;0.00;0.00;;;30.20;69.50;;;;;;5087243;28;19912;-76
2023/08/14 13:30:53;;;;;;;0.40;0.40;;;30.50;68.70;;;;;;5087246;28;20042;-76
2023/08/14 13:33:19;;;;;;;0.57;0.57;;;30.70;70.50;;;;;;5087766;28;20772;-78
2023/08/14 13:35:44;;;;;;;0.40;0.40;;;30.50;70.90;;;;;;5087156;28;20051;-77
2023/08/14 13:38:10;;;;;;;0.38;0.32;;;30.40;69.90;;;;;;5088097;28;20256;-76
2023/08/14 13:40:37;;;;;;;0.00;0.00;;;30.30;68.00;;;;;;5086197;28;20529;-76
2023/08/14 13:43:03;;;;;;;2.90;0.85;;;30.30;71.70;;;;;;5087703;28;20103;-76
2023/08/14 13:45:29;;;;;;;;;;;30.50;70.90;;;;;;5086247;28;20032;-77
2023/08/14 13:47:55;;;;;;;0.20;0.20;;;30.80;68.40;;;;;;5087656;28;19908;-77
2023/08/14 13:50:26;;;;;;;0.00;0.00;;;31.00;67.80;;;;;;5087467;28;20525;-77
2023/08/14 13:52:52;;;;;;;0.10;0.10;;;30.90;68.50;;;;;;5087336;28;20038;-76
2023/08/14 13:55:17;;;;;;;0.75;0.75;;;30.80;69.80;;;;;;5087450;28;20032;-76
2023/08/14 13:57:43;;;;;;;0.10;0.10;;;30.40;66.40;;;;;;5087812;28;20035;-76
2023/08/14 14:00:10;;;;;;;0.13;0.10;;;30.20;67.20;;;;;;5087298;28;20680;-77
2023/08/14 14:02:35;;;;;;;0.00;0.00;;;30.30;68.70;;;;;;5086295;28;20032;-76
2023/08/14 14:05:02;;;;;;;0.15;0.15;;;30.40;67.40;;;;;;5082549;28;20032;-76